sensor_id;sensor_type;location;lat;lon;timestamp;P1;durP1;ratioP1;P2;durP2;ratioP2
11447;SDS011;43755;49.736;8.734;2023-06-22T00:01:41;6.07;;;5.47;;
11447;SDS011;43755;49.736;8.734;2023-06-22T00:03:44;6.10;;;5.50;;
11447;SDS011;43755;49.736;8.734;2023-06-22T00:05:46;5.50;;;5.00;;
11447;SDS011;43755;49.736;8.734;2023-06-22T00:07:48;5.90;;;5.40;;
11447;SDS011;43755;49.736;8.734;2023-06-22T00:09:49;5.77;;;5.27;;
11447;SDS011;43755;49.736;8.734;2023-06-22T00:11:50;6.23;;;5.23;;
11447;SDS011;43755;49.736;8.734;2023-06-22T00:13:52;5.93;;;5.43;;
11447;SDS011;43755;49.736;8.734;2023-06-22T00:15:53;5.20;;;4.83;;
11447;SDS011;43755;49.736;8.734;2023-06-22T00:17:54;5.70;;;5.20;;
11447;SDS011;43755;49.736;8.734;2023-06-22T00:19:58;5.40;;;5.00;;
11447;SDS011;43755;49.736;8.734;2023-06-22T00:22:00;5.50;;;5.10;;
11447;SDS011;43755;49.736;8.734;2023-06-22T00:24:03;5.67;;;5.23;;
11447;SDS011;43755;49.736;8.734;2023-06-22T00:26:05;5.17;;;4.77;;
11447;SDS011;43755;49.736;8.734;2023-06-22T00:28:07;5.93;;;5.10;;
11447;SDS011;43755;49.736;8.734;2023-06-22T00:30:09;5.13;;;4.73;;
11447;SDS011;43755;49.736;8.734;2023-06-22T00:32:11;5.23;;;4.83;;
11447;SDS011;43755;49.736;8.734;2023-06-22T00:34:12;5.00;;;4.60;;
11447;SDS011;43755;49.736;8.734;2023-06-22T00:36:15;5.43;;;4.93;;
11447;SDS011;43755;49.736;8.734;2023-06-22T00:38:17;5.20;;;4.70;;
11447;SDS011;43755;49.736;8.734;2023-06-22T00:40:19;5.57;;;4.70;;
11447;SDS011;43755;49.736;8.734;2023-06-22T00:42:21;5.40;;;4.90;;
11447;SDS011;43755;49.736;8.734;2023-06-22T00:44:23;5.93;;;5.53;;
11447;SDS011;43755;49.736;8.734;2023-06-22T00:46:24;5.87;;;5.20;;
11447;SDS011;43755;49.736;8.734;2023-06-22T00:48:26;5.53;;;5.13;;
11447;SDS011;43755;49.736;8.734;2023-06-22T00:50:29;6.10;;;5.50;;
11447;SDS011;43755;49.736;8.734;2023-06-22T00:52:34;6.13;;;5.63;;
11447;SDS011;43755;49.736;8.734;2023-06-22T00:54:36;5.53;;;5.13;;
11447;SDS011;43755;49.736;8.734;2023-06-22T00:56:38;6.53;;;6.00;;
11447;SDS011;43755;49.736;8.734;2023-06-22T00:58:39;6.20;;;5.70;;
11447;SDS011;43755;49.736;8.734;2023-06-22T01:00:41;7.83;;;6.77;;
11447;SDS011;43755;49.736;8.734;2023-06-22T01:02:43;7.03;;;6.43;;
11447;SDS011;43755;49.736;8.734;2023-06-22T01:04:46;6.53;;;5.93;;
11447;SDS011;43755;49.736;8.734;2023-06-22T01:06:50;6.03;;;5.50;;
11447;SDS011;43755;49.736;8.734;2023-06-22T01:09:02;6.73;;;5.53;;
11447;SDS011;43755;49.736;8.734;2023-06-22T01:11:10;7.37;;;5.50;;
11447;SDS011;43755;49.736;8.734;2023-06-22T01:13:18;9.73;;;6.27;;
11447;SDS011;43755;49.736;8.734;2023-06-22T01:15:29;7.77;;;6.97;;
11447;SDS011;43755;49.736;8.734;2023-06-22T01:17:35;14.63;;;7.33;;
11447;SDS011;43755;49.736;8.734;2023-06-22T01:19:38;8.47;;;6.73;;
11447;SDS011;43755;49.736;8.734;2023-06-22T01:21:46;7.47;;;6.50;;
11447;SDS011;43755;49.736;8.734;2023-06-22T01:23:53;7.73;;;6.90;;
11447;SDS011;43755;49.736;8.734;2023-06-22T01:26:05;7.80;;;7.03;;
11447;SDS011;43755;49.736;8.734;2023-06-22T01:28:17;7.90;;;7.10;;
11447;SDS011;43755;49.736;8.734;2023-06-22T01:30:26;8.13;;;7.23;;
11447;SDS011;43755;49.736;8.734;2023-06-22T01:32:29;10.20;;;7.60;;
11447;SDS011;43755;49.736;8.734;2023-06-22T01:34:33;8.73;;;7.30;;
11447;SDS011;43755;49.736;8.734;2023-06-22T01:36:36;7.80;;;7.10;;
11447;SDS011;43755;49.736;8.734;2023-06-22T01:38:40;8.90;;;6.87;;
11447;SDS011;43755;49.736;8.734;2023-06-22T01:40:43;7.60;;;6.90;;
11447;SDS011;43755;49.736;8.734;2023-06-22T01:42:44;8.37;;;7.43;;
11447;SDS011;43755;49.736;8.734;2023-06-22T01:44:46;8.17;;;7.37;;
11447;SDS011;43755;49.736;8.734;2023-06-22T01:46:49;8.47;;;7.77;;
11447;SDS011;43755;49.736;8.734;2023-06-22T01:48:52;8.60;;;7.70;;
11447;SDS011;43755;49.736;8.734;2023-06-22T01:50:54;8.03;;;7.40;;
11447;SDS011;43755;49.736;8.734;2023-06-22T01:52:56;7.63;;;7.03;;
11447;SDS011;43755;49.736;8.734;2023-06-22T01:54:57;8.23;;;7.30;;
11447;SDS011;43755;49.736;8.734;2023-06-22T01:56:58;7.70;;;7.00;;
11447;SDS011;43755;49.736;8.734;2023-06-22T01:59:02;7.53;;;6.83;;
11447;SDS011;43755;49.736;8.734;2023-06-22T02:01:09;8.27;;;7.50;;
11447;SDS011;43755;49.736;8.734;2023-06-22T02:03:14;8.00;;;7.30;;
11447;SDS011;43755;49.736;8.734;2023-06-22T02:05:19;8.07;;;7.47;;
11447;SDS011;43755;49.736;8.734;2023-06-22T02:07:23;8.00;;;7.20;;
11447;SDS011;43755;49.736;8.734;2023-06-22T02:09:32;8.43;;;7.63;;
11447;SDS011;43755;49.736;8.734;2023-06-22T02:11:38;8.20;;;7.47;;
11447;SDS011;43755;49.736;8.734;2023-06-22T02:13:42;7.90;;;7.30;;
11447;SDS011;43755;49.736;8.734;2023-06-22T02:15:44;8.10;;;7.30;;
11447;SDS011;43755;49.736;8.734;2023-06-22T02:17:47;6.90;;;6.40;;
11447;SDS011;43755;49.736;8.734;2023-06-22T02:19:50;7.00;;;6.33;;
11447;SDS011;43755;49.736;8.734;2023-06-22T02:21:52;7.57;;;6.87;;
11447;SDS011;43755;49.736;8.734;2023-06-22T02:23:53;7.93;;;7.23;;
11447;SDS011;43755;49.736;8.734;2023-06-22T02:25:55;8.03;;;7.33;;
11447;SDS011;43755;49.736;8.734;2023-06-22T02:27:56;8.07;;;7.37;;
11447;SDS011;43755;49.736;8.734;2023-06-22T02:29:57;7.60;;;7.00;;
11447;SDS011;43755;49.736;8.734;2023-06-22T02:31:59;7.87;;;7.27;;
11447;SDS011;43755;49.736;8.734;2023-06-22T02:34:00;8.33;;;7.63;;
11447;SDS011;43755;49.736;8.734;2023-06-22T02:36:03;8.40;;;7.60;;
11447;SDS011;43755;49.736;8.734;2023-06-22T02:38:09;7.57;;;6.80;;
11447;SDS011;43755;49.736;8.734;2023-06-22T02:40:10;8.50;;;7.70;;
11447;SDS011;43755;49.736;8.734;2023-06-22T02:42:12;7.17;;;6.57;;
11447;SDS011;43755;49.736;8.734;2023-06-22T02:44:14;7.97;;;7.37;;
11447;SDS011;43755;49.736;8.734;2023-06-22T02:46:15;7.83;;;7.20;;
11447;SDS011;43755;49.736;8.734;2023-06-22T02:48:17;7.30;;;6.70;;
11447;SDS011;43755;49.736;8.734;2023-06-22T02:50:18;8.60;;;7.30;;
11447;SDS011;43755;49.736;8.734;2023-06-22T02:52:21;7.70;;;7.00;;
11447;SDS011;43755;49.736;8.734;2023-06-22T02:54:22;8.20;;;7.40;;
11447;SDS011;43755;49.736;8.734;2023-06-22T02:56:24;8.03;;;7.33;;
11447;SDS011;43755;49.736;8.734;2023-06-22T02:58:25;7.87;;;7.17;;
11447;SDS011;43755;49.736;8.734;2023-06-22T03:00:27;7.47;;;6.87;;
11447;SDS011;43755;49.736;8.734;2023-06-22T03:02:30;7.63;;;6.93;;
11447;SDS011;43755;49.736;8.734;2023-06-22T03:04:31;8.00;;;7.30;;
11447;SDS011;43755;49.736;8.734;2023-06-22T03:06:33;7.70;;;7.10;;
11447;SDS011;43755;49.736;8.734;2023-06-22T03:08:36;7.93;;;7.23;;
11447;SDS011;43755;49.736;8.734;2023-06-22T03:10:37;7.43;;;6.73;;
11447;SDS011;43755;49.736;8.734;2023-06-22T03:12:39;8.13;;;7.23;;
11447;SDS011;43755;49.736;8.734;2023-06-22T03:14:41;8.53;;;7.80;;
11447;SDS011;43755;49.736;8.734;2023-06-22T03:16:42;8.10;;;7.40;;
11447;SDS011;43755;49.736;8.734;2023-06-22T03:18:43;7.57;;;6.90;;
11447;SDS011;43755;49.736;8.734;2023-06-22T03:20:45;7.97;;;7.20;;
11447;SDS011;43755;49.736;8.734;2023-06-22T03:22:46;8.20;;;7.50;;
11447;SDS011;43755;49.736;8.734;2023-06-22T03:24:50;7.70;;;7.10;;
11447;SDS011;43755;49.736;8.734;2023-06-22T03:26:51;8.60;;;7.80;;
11447;SDS011;43755;49.736;8.734;2023-06-22T03:28:52;8.07;;;7.40;;
11447;SDS011;43755;49.736;8.734;2023-06-22T03:30:54;8.10;;;7.50;;
11447;SDS011;43755;49.736;8.734;2023-06-22T03:32:55;8.50;;;7.80;;
11447;SDS011;43755;49.736;8.734;2023-06-22T03:34:57;8.00;;;7.40;;
11447;SDS011;43755;49.736;8.734;2023-06-22T03:36:59;7.13;;;6.63;;
11447;SDS011;43755;49.736;8.734;2023-06-22T03:39:00;8.37;;;7.57;;
11447;SDS011;43755;49.736;8.734;2023-06-22T03:41:03;8.40;;;7.80;;
11447;SDS011;43755;49.736;8.734;2023-06-22T03:43:04;8.57;;;7.70;;
11447;SDS011;43755;49.736;8.734;2023-06-22T03:45:06;8.70;;;8.00;;
11447;SDS011;43755;49.736;8.734;2023-06-22T03:47:08;8.77;;;8.17;;
11447;SDS011;43755;49.736;8.734;2023-06-22T03:49:09;8.70;;;8.00;;
11447;SDS011;43755;49.736;8.734;2023-06-22T03:51:11;8.60;;;7.80;;
11447;SDS011;43755;49.736;8.734;2023-06-22T03:53:12;8.50;;;7.60;;
11447;SDS011;43755;49.736;8.734;2023-06-22T03:55:14;8.30;;;7.70;;
11447;SDS011;43755;49.736;8.734;2023-06-22T03:57:17;8.80;;;8.00;;
11447;SDS011;43755;49.736;8.734;2023-06-22T03:59:18;8.10;;;7.50;;
11447;SDS011;43755;49.736;8.734;2023-06-22T04:01:20;8.90;;;8.03;;
11447;SDS011;43755;49.736;8.734;2023-06-22T04:03:21;8.83;;;8.13;;
11447;SDS011;43755;49.736;8.734;2023-06-22T04:05:22;8.80;;;8.10;;
11447;SDS011;43755;49.736;8.734;2023-06-22T04:07:24;8.73;;;8.03;;
11447;SDS011;43755;49.736;8.734;2023-06-22T04:09:26;8.63;;;7.80;;
11447;SDS011;43755;49.736;8.734;2023-06-22T04:11:27;8.60;;;7.90;;
11447;SDS011;43755;49.736;8.734;2023-06-22T04:13:30;8.40;;;7.60;;
11447;SDS011;43755;49.736;8.734;2023-06-22T04:15:31;8.57;;;7.80;;
11447;SDS011;43755;49.736;8.734;2023-06-22T04:17:32;8.77;;;8.17;;
11447;SDS011;43755;49.736;8.734;2023-06-22T04:19:34;8.77;;;8.07;;
11447;SDS011;43755;49.736;8.734;2023-06-22T04:21:35;10.93;;;9.90;;
11447;SDS011;43755;49.736;8.734;2023-06-22T04:23:37;10.90;;;10.10;;
11447;SDS011;43755;49.736;8.734;2023-06-22T04:25:39;11.73;;;10.73;;
11447;SDS011;43755;49.736;8.734;2023-06-22T04:27:40;11.33;;;10.30;;
11447;SDS011;43755;49.736;8.734;2023-06-22T04:29:43;10.10;;;9.20;;
11447;SDS011;43755;49.736;8.734;2023-06-22T04:31:48;10.50;;;9.60;;
11447;SDS011;43755;49.736;8.734;2023-06-22T04:33:50;10.40;;;9.53;;
11447;SDS011;43755;49.736;8.734;2023-06-22T04:35:53;10.43;;;9.43;;
11447;SDS011;43755;49.736;8.734;2023-06-22T04:37:59;10.63;;;9.67;;
11447;SDS011;43755;49.736;8.734;2023-06-22T04:40:00;10.00;;;9.07;;
11447;SDS011;43755;49.736;8.734;2023-06-22T04:42:03;9.30;;;8.47;;
11447;SDS011;43755;49.736;8.734;2023-06-22T04:44:05;9.77;;;8.97;;
11447;SDS011;43755;49.736;8.734;2023-06-22T04:46:08;9.80;;;8.90;;
11447;SDS011;43755;49.736;8.734;2023-06-22T04:48:09;9.53;;;8.63;;
11447;SDS011;43755;49.736;8.734;2023-06-22T04:50:15;9.37;;;8.47;;
11447;SDS011;43755;49.736;8.734;2023-06-22T04:52:17;9.33;;;8.43;;
11447;SDS011;43755;49.736;8.734;2023-06-22T04:54:21;9.40;;;8.50;;
11447;SDS011;43755;49.736;8.734;2023-06-22T04:56:23;9.93;;;9.03;;
11447;SDS011;43755;49.736;8.734;2023-06-22T04:58:28;10.30;;;8.70;;
11447;SDS011;43755;49.736;8.734;2023-06-22T05:00:32;11.33;;;8.67;;
11447;SDS011;43755;49.736;8.734;2023-06-22T05:02:37;9.47;;;8.57;;
11447;SDS011;43755;49.736;8.734;2023-06-22T05:04:39;9.17;;;8.40;;
11447;SDS011;43755;49.736;8.734;2023-06-22T05:06:40;8.07;;;7.37;;
11447;SDS011;43755;49.736;8.734;2023-06-22T05:08:41;7.50;;;6.90;;
11447;SDS011;43755;49.736;8.734;2023-06-22T05:10:43;8.50;;;7.70;;
11447;SDS011;43755;49.736;8.734;2023-06-22T05:12:45;7.77;;;6.97;;
11447;SDS011;43755;49.736;8.734;2023-06-22T05:14:47;7.23;;;6.63;;
11447;SDS011;43755;49.736;8.734;2023-06-22T05:16:49;6.87;;;6.27;;
11447;SDS011;43755;49.736;8.734;2023-06-22T05:18:53;9.60;;;6.57;;
11447;SDS011;43755;49.736;8.734;2023-06-22T05:20:55;7.87;;;7.17;;
11447;SDS011;43755;49.736;8.734;2023-06-22T05:22:57;7.87;;;7.17;;
11447;SDS011;43755;49.736;8.734;2023-06-22T05:24:58;7.70;;;7.00;;
11447;SDS011;43755;49.736;8.734;2023-06-22T05:27:00;8.13;;;6.90;;
11447;SDS011;43755;49.736;8.734;2023-06-22T05:29:02;8.03;;;7.37;;
11447;SDS011;43755;49.736;8.734;2023-06-22T05:31:03;8.73;;;7.20;;
11447;SDS011;43755;49.736;8.734;2023-06-22T05:33:05;8.33;;;7.53;;
11447;SDS011;43755;49.736;8.734;2023-06-22T05:35:08;7.93;;;7.20;;
11447;SDS011;43755;49.736;8.734;2023-06-22T05:37:10;8.13;;;7.30;;
11447;SDS011;43755;49.736;8.734;2023-06-22T05:39:13;8.53;;;7.73;;
11447;SDS011;43755;49.736;8.734;2023-06-22T05:41:15;8.33;;;7.33;;
11447;SDS011;43755;49.736;8.734;2023-06-22T05:43:16;7.90;;;7.10;;
11447;SDS011;43755;49.736;8.734;2023-06-22T05:45:17;8.13;;;7.43;;
11447;SDS011;43755;49.736;8.734;2023-06-22T05:47:19;9.00;;;8.10;;
11447;SDS011;43755;49.736;8.734;2023-06-22T05:49:20;8.23;;;7.43;;
11447;SDS011;43755;49.736;8.734;2023-06-22T05:51:23;8.90;;;7.63;;
11447;SDS011;43755;49.736;8.734;2023-06-22T05:53:25;8.27;;;7.50;;
11447;SDS011;43755;49.736;8.734;2023-06-22T05:55:26;9.60;;;8.60;;
11447;SDS011;43755;49.736;8.734;2023-06-22T05:57:28;8.60;;;7.80;;
11447;SDS011;43755;49.736;8.734;2023-06-22T05:59:29;8.57;;;7.77;;
11447;SDS011;43755;49.736;8.734;2023-06-22T06:01:30;8.97;;;8.07;;
11447;SDS011;43755;49.736;8.734;2023-06-22T06:03:34;9.13;;;8.30;;
11447;SDS011;43755;49.736;8.734;2023-06-22T06:05:41;8.13;;;7.30;;
11447;SDS011;43755;49.736;8.734;2023-06-22T06:07:44;10.23;;;8.23;;
11447;SDS011;43755;49.736;8.734;2023-06-22T06:09:46;9.30;;;8.50;;
11447;SDS011;43755;49.736;8.734;2023-06-22T06:11:48;8.93;;;8.20;;
11447;SDS011;43755;49.736;8.734;2023-06-22T06:13:49;9.27;;;8.37;;
11447;SDS011;43755;49.736;8.734;2023-06-22T06:15:50;9.53;;;8.13;;
11447;SDS011;43755;49.736;8.734;2023-06-22T06:17:54;9.93;;;8.43;;
11447;SDS011;43755;49.736;8.734;2023-06-22T06:19:56;9.97;;;8.73;;
11447;SDS011;43755;49.736;8.734;2023-06-22T06:21:57;9.40;;;8.33;;
11447;SDS011;43755;49.736;8.734;2023-06-22T06:24:00;9.43;;;8.70;;
11447;SDS011;43755;49.736;8.734;2023-06-22T06:26:03;9.17;;;8.47;;
11447;SDS011;43755;49.736;8.734;2023-06-22T06:28:06;9.13;;;8.43;;
11447;SDS011;43755;49.736;8.734;2023-06-22T06:30:08;9.73;;;8.93;;
11447;SDS011;43755;49.736;8.734;2023-06-22T06:32:10;8.90;;;8.10;;
11447;SDS011;43755;49.736;8.734;2023-06-22T06:34:12;8.83;;;8.13;;
11447;SDS011;43755;49.736;8.734;2023-06-22T06:36:13;9.33;;;8.47;;
11447;SDS011;43755;49.736;8.734;2023-06-22T06:38:15;10.17;;;9.27;;
11447;SDS011;43755;49.736;8.734;2023-06-22T06:40:18;9.80;;;8.97;;
11447;SDS011;43755;49.736;8.734;2023-06-22T06:42:19;10.30;;;9.30;;
11447;SDS011;43755;49.736;8.734;2023-06-22T06:44:23;11.80;;;9.13;;
11447;SDS011;43755;49.736;8.734;2023-06-22T06:46:24;9.77;;;8.90;;
11447;SDS011;43755;49.736;8.734;2023-06-22T06:48:25;8.97;;;8.03;;
11447;SDS011;43755;49.736;8.734;2023-06-22T06:50:27;10.03;;;8.97;;
11447;SDS011;43755;49.736;8.734;2023-06-22T06:52:29;8.93;;;8.17;;
11447;SDS011;43755;49.736;8.734;2023-06-22T06:54:30;9.00;;;8.13;;
11447;SDS011;43755;49.736;8.734;2023-06-22T06:56:33;9.80;;;9.00;;
11447;SDS011;43755;49.736;8.734;2023-06-22T06:58:34;9.03;;;8.13;;
11447;SDS011;43755;49.736;8.734;2023-06-22T07:00:36;9.00;;;8.20;;
11447;SDS011;43755;49.736;8.734;2023-06-22T07:02:38;9.10;;;8.40;;
11447;SDS011;43755;49.736;8.734;2023-06-22T07:04:40;8.90;;;7.93;;
11447;SDS011;43755;49.736;8.734;2023-06-22T07:06:41;9.00;;;8.30;;
11447;SDS011;43755;49.736;8.734;2023-06-22T07:08:43;8.60;;;7.83;;
11447;SDS011;43755;49.736;8.734;2023-06-22T07:10:44;9.43;;;8.53;;
11447;SDS011;43755;49.736;8.734;2023-06-22T07:12:47;9.27;;;8.47;;
11447;SDS011;43755;49.736;8.734;2023-06-22T07:14:48;12.47;;;8.80;;
11447;SDS011;43755;49.736;8.734;2023-06-22T07:16:50;9.40;;;8.27;;
11447;SDS011;43755;49.736;8.734;2023-06-22T07:18:51;8.60;;;7.70;;
11447;SDS011;43755;49.736;8.734;2023-06-22T07:20:53;8.50;;;7.80;;
11447;SDS011;43755;49.736;8.734;2023-06-22T07:22:54;8.53;;;7.83;;
11447;SDS011;43755;49.736;8.734;2023-06-22T07:24:55;8.43;;;7.57;;
11447;SDS011;43755;49.736;8.734;2023-06-22T07:26:57;9.13;;;8.33;;
11447;SDS011;43755;49.736;8.734;2023-06-22T07:29:00;9.40;;;8.57;;
11447;SDS011;43755;49.736;8.734;2023-06-22T07:31:01;10.23;;;8.40;;
11447;SDS011;43755;49.736;8.734;2023-06-22T07:33:03;9.33;;;8.53;;
11447;SDS011;43755;49.736;8.734;2023-06-22T07:35:06;9.20;;;8.40;;
11447;SDS011;43755;49.736;8.734;2023-06-22T07:37:08;9.10;;;8.23;;
11447;SDS011;43755;49.736;8.734;2023-06-22T07:39:10;9.53;;;8.07;;
11447;SDS011;43755;49.736;8.734;2023-06-22T07:41:12;9.20;;;8.20;;
11447;SDS011;43755;49.736;8.734;2023-06-22T07:43:15;8.90;;;7.93;;
11447;SDS011;43755;49.736;8.734;2023-06-22T07:45:17;8.83;;;8.07;;
11447;SDS011;43755;49.736;8.734;2023-06-22T07:47:19;9.27;;;8.47;;
11447;SDS011;43755;49.736;8.734;2023-06-22T07:49:25;8.63;;;7.93;;
11447;SDS011;43755;49.736;8.734;2023-06-22T07:51:26;9.20;;;8.50;;
11447;SDS011;43755;49.736;8.734;2023-06-22T07:53:28;9.40;;;8.60;;
11447;SDS011;43755;49.736;8.734;2023-06-22T07:55:29;9.00;;;8.40;;
11447;SDS011;43755;49.736;8.734;2023-06-22T07:57:30;10.00;;;8.53;;
11447;SDS011;43755;49.736;8.734;2023-06-22T07:59:33;9.60;;;8.80;;
11447;SDS011;43755;49.736;8.734;2023-06-22T08:01:36;9.57;;;8.67;;
11447;SDS011;43755;49.736;8.734;2023-06-22T08:03:37;9.37;;;8.57;;
11447;SDS011;43755;49.736;8.734;2023-06-22T08:05:39;11.00;;;9.03;;
11447;SDS011;43755;49.736;8.734;2023-06-22T08:07:40;9.67;;;8.80;;
11447;SDS011;43755;49.736;8.734;2023-06-22T08:09:46;9.70;;;8.80;;
11447;SDS011;43755;49.736;8.734;2023-06-22T08:11:48;9.77;;;8.90;;
11447;SDS011;43755;49.736;8.734;2023-06-22T08:13:50;9.47;;;8.67;;
11447;SDS011;43755;49.736;8.734;2023-06-22T08:15:51;9.27;;;8.37;;
11447;SDS011;43755;49.736;8.734;2023-06-22T08:17:54;9.40;;;8.60;;
11447;SDS011;43755;49.736;8.734;2023-06-22T08:19:55;9.80;;;8.90;;
11447;SDS011;43755;49.736;8.734;2023-06-22T08:21:57;9.80;;;9.07;;
11447;SDS011;43755;49.736;8.734;2023-06-22T08:23:58;9.67;;;8.60;;
11447;SDS011;43755;49.736;8.734;2023-06-22T08:26:00;9.47;;;8.50;;
11447;SDS011;43755;49.736;8.734;2023-06-22T08:28:01;10.03;;;9.13;;
11447;SDS011;43755;49.736;8.734;2023-06-22T08:30:03;9.17;;;8.37;;
11447;SDS011;43755;49.736;8.734;2023-06-22T08:32:06;9.30;;;8.40;;
11447;SDS011;43755;49.736;8.734;2023-06-22T08:34:10;9.10;;;8.20;;
11447;SDS011;43755;49.736;8.734;2023-06-22T08:36:11;8.83;;;8.07;;
11447;SDS011;43755;49.736;8.734;2023-06-22T08:38:13;8.40;;;7.70;;
11447;SDS011;43755;49.736;8.734;2023-06-22T08:40:17;9.23;;;8.20;;
11447;SDS011;43755;49.736;8.734;2023-06-22T08:42:19;9.37;;;8.20;;
11447;SDS011;43755;49.736;8.734;2023-06-22T08:44:21;9.17;;;8.37;;
11447;SDS011;43755;49.736;8.734;2023-06-22T08:46:22;9.67;;;8.67;;
11447;SDS011;43755;49.736;8.734;2023-06-22T08:48:30;8.60;;;7.90;;
11447;SDS011;43755;49.736;8.734;2023-06-22T08:50:32;9.33;;;8.43;;
11447;SDS011;43755;49.736;8.734;2023-06-22T08:52:34;8.27;;;7.57;;
11447;SDS011;43755;49.736;8.734;2023-06-22T08:54:36;8.17;;;7.40;;
11447;SDS011;43755;49.736;8.734;2023-06-22T08:56:37;8.50;;;7.77;;
11447;SDS011;43755;49.736;8.734;2023-06-22T08:58:38;7.33;;;6.73;;
11447;SDS011;43755;49.736;8.734;2023-06-22T09:00:40;7.50;;;6.70;;
11447;SDS011;43755;49.736;8.734;2023-06-22T09:02:41;7.80;;;7.20;;
11447;SDS011;43755;49.736;8.734;2023-06-22T09:04:42;7.67;;;7.07;;
11447;SDS011;43755;49.736;8.734;2023-06-22T09:06:45;7.93;;;7.30;;
11447;SDS011;43755;49.736;8.734;2023-06-22T09:08:47;8.03;;;7.23;;
11447;SDS011;43755;49.736;8.734;2023-06-22T09:10:49;8.00;;;7.30;;
11447;SDS011;43755;49.736;8.734;2023-06-22T09:12:50;7.57;;;6.83;;
11447;SDS011;43755;49.736;8.734;2023-06-22T09:14:52;7.73;;;7.13;;
11447;SDS011;43755;49.736;8.734;2023-06-22T09:16:54;7.93;;;7.23;;
11447;SDS011;43755;49.736;8.734;2023-06-22T09:18:55;7.87;;;7.10;;
11447;SDS011;43755;49.736;8.734;2023-06-22T09:20:57;7.30;;;6.80;;
11447;SDS011;43755;49.736;8.734;2023-06-22T09:22:59;8.03;;;6.70;;
11447;SDS011;43755;49.736;8.734;2023-06-22T09:25:01;7.97;;;7.30;;
11447;SDS011;43755;49.736;8.734;2023-06-22T09:27:03;8.13;;;7.53;;
11447;SDS011;43755;49.736;8.734;2023-06-22T09:29:05;7.40;;;6.70;;
11447;SDS011;43755;49.736;8.734;2023-06-22T09:31:06;7.07;;;6.47;;
11447;SDS011;43755;49.736;8.734;2023-06-22T09:33:08;7.10;;;6.60;;
11447;SDS011;43755;49.736;8.734;2023-06-22T09:35:09;7.47;;;6.87;;
11447;SDS011;43755;49.736;8.734;2023-06-22T09:37:12;9.87;;;6.50;;
11447;SDS011;43755;49.736;8.734;2023-06-22T09:39:16;7.50;;;6.77;;
11447;SDS011;43755;49.736;8.734;2023-06-22T09:41:18;7.10;;;6.40;;
11447;SDS011;43755;49.736;8.734;2023-06-22T09:43:20;7.07;;;6.43;;
11447;SDS011;43755;49.736;8.734;2023-06-22T09:45:21;7.40;;;6.70;;
11447;SDS011;43755;49.736;8.734;2023-06-22T09:47:22;6.97;;;6.37;;
11447;SDS011;43755;49.736;8.734;2023-06-22T09:49:24;7.17;;;6.47;;
11447;SDS011;43755;49.736;8.734;2023-06-22T09:51:25;6.60;;;6.00;;
11447;SDS011;43755;49.736;8.734;2023-06-22T09:53:26;7.10;;;6.23;;
11447;SDS011;43755;49.736;8.734;2023-06-22T09:55:29;8.33;;;6.87;;
11447;SDS011;43755;49.736;8.734;2023-06-22T09:57:31;6.67;;;6.17;;
11447;SDS011;43755;49.736;8.734;2023-06-22T09:59:32;7.00;;;6.40;;
11447;SDS011;43755;49.736;8.734;2023-06-22T10:01:34;10.27;;;6.70;;
11447;SDS011;43755;49.736;8.734;2023-06-22T10:03:35;7.57;;;6.50;;
11447;SDS011;43755;49.736;8.734;2023-06-22T10:05:37;8.43;;;6.70;;
11447;SDS011;43755;49.736;8.734;2023-06-22T10:07:38;7.23;;;6.53;;
11447;SDS011;43755;49.736;8.734;2023-06-22T10:09:42;6.73;;;6.13;;
11447;SDS011;43755;49.736;8.734;2023-06-22T10:11:45;7.03;;;6.10;;
11447;SDS011;43755;49.736;8.734;2023-06-22T10:13:46;6.80;;;6.30;;
11447;SDS011;43755;49.736;8.734;2023-06-22T10:15:47;7.57;;;6.87;;
11447;SDS011;43755;49.736;8.734;2023-06-22T10:17:52;7.13;;;6.00;;
11447;SDS011;43755;49.736;8.734;2023-06-22T10:19:53;8.80;;;6.07;;
11447;SDS011;43755;49.736;8.734;2023-06-22T10:21:55;7.33;;;6.63;;
11447;SDS011;43755;49.736;8.734;2023-06-22T10:23:56;6.97;;;6.27;;
11447;SDS011;43755;49.736;8.734;2023-06-22T10:25:57;8.77;;;6.60;;
11447;SDS011;43755;49.736;8.734;2023-06-22T10:28:00;7.13;;;6.43;;
11447;SDS011;43755;49.736;8.734;2023-06-22T10:30:02;6.93;;;6.23;;
11447;SDS011;43755;49.736;8.734;2023-06-22T10:32:05;9.93;;;6.80;;
11447;SDS011;43755;49.736;8.734;2023-06-22T10:34:07;7.47;;;6.77;;
11447;SDS011;43755;49.736;8.734;2023-06-22T10:36:09;7.20;;;6.50;;
11447;SDS011;43755;49.736;8.734;2023-06-22T10:38:11;6.63;;;6.03;;
11447;SDS011;43755;49.736;8.734;2023-06-22T10:40:12;6.43;;;5.83;;
11447;SDS011;43755;49.736;8.734;2023-06-22T10:42:15;7.93;;;6.10;;
11447;SDS011;43755;49.736;8.734;2023-06-22T10:44:17;7.13;;;6.07;;
11447;SDS011;43755;49.736;8.734;2023-06-22T10:46:20;9.60;;;6.00;;
11447;SDS011;43755;49.736;8.734;2023-06-22T10:48:22;5.80;;;5.30;;
11447;SDS011;43755;49.736;8.734;2023-06-22T10:50:24;7.50;;;5.90;;
11447;SDS011;43755;49.736;8.734;2023-06-22T10:52:25;7.27;;;5.70;;
11447;SDS011;43755;49.736;8.734;2023-06-22T10:54:27;6.40;;;5.80;;
11447;SDS011;43755;49.736;8.734;2023-06-22T10:56:29;6.27;;;5.67;;
11447;SDS011;43755;49.736;8.734;2023-06-22T10:58:30;6.63;;;6.10;;
11447;SDS011;43755;49.736;8.734;2023-06-22T11:00:33;8.17;;;5.63;;
11447;SDS011;43755;49.736;8.734;2023-06-22T11:02:34;7.23;;;6.23;;
11447;SDS011;43755;49.736;8.734;2023-06-22T11:04:35;7.97;;;5.90;;
11447;SDS011;43755;49.736;8.734;2023-06-22T11:06:37;7.00;;;5.50;;
11447;SDS011;43755;49.736;8.734;2023-06-22T11:08:38;7.83;;;5.80;;
11447;SDS011;43755;49.736;8.734;2023-06-22T11:10:40;6.60;;;5.90;;
11447;SDS011;43755;49.736;8.734;2023-06-22T11:12:41;6.90;;;6.20;;
11447;SDS011;43755;49.736;8.734;2023-06-22T11:14:43;7.60;;;6.07;;
11447;SDS011;43755;49.736;8.734;2023-06-22T11:16:45;7.43;;;5.50;;
11447;SDS011;43755;49.736;8.734;2023-06-22T11:18:47;6.57;;;5.97;;
11447;SDS011;43755;49.736;8.734;2023-06-22T11:20:48;11.43;;;6.57;;
11447;SDS011;43755;49.736;8.734;2023-06-22T11:22:50;7.40;;;5.80;;
11447;SDS011;43755;49.736;8.734;2023-06-22T11:24:51;6.40;;;5.70;;
11447;SDS011;43755;49.736;8.734;2023-06-22T11:26:52;6.63;;;5.60;;
11447;SDS011;43755;49.736;8.734;2023-06-22T11:28:54;10.47;;;5.60;;
11447;SDS011;43755;49.736;8.734;2023-06-22T11:30:55;8.23;;;5.93;;
11447;SDS011;43755;49.736;8.734;2023-06-22T11:32:58;6.87;;;5.60;;
11447;SDS011;43755;49.736;8.734;2023-06-22T11:35:00;6.47;;;5.70;;
11447;SDS011;43755;49.736;8.734;2023-06-22T11:37:01;6.13;;;5.53;;
11447;SDS011;43755;49.736;8.734;2023-06-22T11:39:02;8.10;;;5.70;;
11447;SDS011;43755;49.736;8.734;2023-06-22T11:41:05;5.93;;;5.37;;
11447;SDS011;43755;49.736;8.734;2023-06-22T11:43:06;5.63;;;5.13;;
11447;SDS011;43755;49.736;8.734;2023-06-22T11:45:08;9.00;;;5.80;;
11447;SDS011;43755;49.736;8.734;2023-06-22T11:47:09;6.70;;;6.10;;
11447;SDS011;43755;49.736;8.734;2023-06-22T11:49:12;8.43;;;5.70;;
11447;SDS011;43755;49.736;8.734;2023-06-22T11:51:14;9.13;;;5.67;;
11447;SDS011;43755;49.736;8.734;2023-06-22T11:53:15;8.10;;;6.07;;
11447;SDS011;43755;49.736;8.734;2023-06-22T11:55:17;8.23;;;5.67;;
11447;SDS011;43755;49.736;8.734;2023-06-22T11:57:18;6.37;;;5.77;;
11447;SDS011;43755;49.736;8.734;2023-06-22T11:59:20;10.10;;;5.80;;
11447;SDS011;43755;49.736;8.734;2023-06-22T12:01:22;7.07;;;5.90;;
11447;SDS011;43755;49.736;8.734;2023-06-22T12:03:23;7.50;;;5.53;;
11447;SDS011;43755;49.736;8.734;2023-06-22T12:05:26;7.10;;;5.83;;
11447;SDS011;43755;49.736;8.734;2023-06-22T12:07:27;5.97;;;5.23;;
11447;SDS011;43755;49.736;8.734;2023-06-22T12:09:29;6.03;;;5.43;;
11447;SDS011;43755;49.736;8.734;2023-06-22T12:11:30;8.87;;;5.60;;
11447;SDS011;43755;49.736;8.734;2023-06-22T12:13:31;8.80;;;5.20;;
11447;SDS011;43755;49.736;8.734;2023-06-22T12:15:33;8.47;;;5.87;;